sensor_id;sensor_type;location;lat;lon;timestamp;P1;durP1;ratioP1;P2;durP2;ratioP2
52106;SDS011;38105;52.968;5.974;2022-11-15T00:00:09;34.30;;;23.08;;
52106;SDS011;38105;52.968;5.974;2022-11-15T00:02:35;42.28;;;25.98;;
52106;SDS011;38105;52.968;5.974;2022-11-15T00:05:10;33.25;;;23.85;;
52106;SDS011;38105;52.968;5.974;2022-11-15T00:07:41;34.85;;;25.50;;
52106;SDS011;38105;52.968;5.974;2022-11-15T00:10:07;32.22;;;23.80;;
52106;SDS011;38105;52.968;5.974;2022-11-15T00:12:33;30.58;;;23.15;;
52106;SDS011;38105;52.968;5.974;2022-11-15T00:15:02;32.53;;;23.23;;
52106;SDS011;38105;52.968;5.974;2022-11-15T00:17:30;37.25;;;24.15;;
52106;SDS011;38105;52.968;5.974;2022-11-15T00:19:59;30.23;;;22.92;;
52106;SDS011;38105;52.968;5.974;2022-11-15T00:22:30;31.55;;;23.80;;
52106;SDS011;38105;52.968;5.974;2022-11-15T00:24:59;31.58;;;23.60;;
52106;SDS011;38105;52.968;5.974;2022-11-15T00:27:29;31.00;;;24.98;;
52106;SDS011;38105;52.968;5.974;2022-11-15T00:29:55;30.08;;;25.42;;
52106;SDS011;38105;52.968;5.974;2022-11-15T00:32:24;31.63;;;26.02;;
52106;SDS011;38105;52.968;5.974;2022-11-15T00:34:50;33.38;;;26.23;;
52106;SDS011;38105;52.968;5.974;2022-11-15T00:37:18;33.58;;;25.80;;
52106;SDS011;38105;52.968;5.974;2022-11-15T00:39:47;34.72;;;26.70;;
52106;SDS011;38105;52.968;5.974;2022-11-15T00:42:12;37.28;;;25.75;;
52106;SDS011;38105;52.968;5.974;2022-11-15T00:44:38;32.75;;;26.00;;
52106;SDS011;38105;52.968;5.974;2022-11-15T00:47:09;35.00;;;26.55;;
52106;SDS011;38105;52.968;5.974;2022-11-15T00:49:38;35.25;;;28.27;;
52106;SDS011;38105;52.968;5.974;2022-11-15T00:52:07;32.72;;;27.35;;
52106;SDS011;38105;52.968;5.974;2022-11-15T00:54:33;35.85;;;27.38;;
52106;SDS011;38105;52.968;5.974;2022-11-15T00:57:04;34.90;;;28.50;;
52106;SDS011;38105;52.968;5.974;2022-11-15T00:59:30;38.40;;;29.80;;
52106;SDS011;38105;52.968;5.974;2022-11-15T01:01:59;38.70;;;29.85;;
52106;SDS011;38105;52.968;5.974;2022-11-15T01:04:30;38.97;;;29.90;;
52106;SDS011;38105;52.968;5.974;2022-11-15T01:06:58;37.17;;;29.50;;
52106;SDS011;38105;52.968;5.974;2022-11-15T01:09:27;41.58;;;30.80;;
52106;SDS011;38105;52.968;5.974;2022-11-15T01:11:53;44.22;;;31.83;;
52106;SDS011;38105;52.968;5.974;2022-11-15T01:14:26;45.22;;;32.15;;
52106;SDS011;38105;52.968;5.974;2022-11-15T01:16:55;44.72;;;31.70;;
52106;SDS011;38105;52.968;5.974;2022-11-15T01:19:23;40.83;;;30.35;;
52106;SDS011;38105;52.968;5.974;2022-11-15T01:21:53;44.58;;;30.45;;
52106;SDS011;38105;52.968;5.974;2022-11-15T01:24:19;40.08;;;30.48;;
52106;SDS011;38105;52.968;5.974;2022-11-15T01:26:50;39.20;;;29.63;;
52106;SDS011;38105;52.968;5.974;2022-11-15T01:29:21;40.72;;;29.17;;
52106;SDS011;38105;52.968;5.974;2022-11-15T01:31:47;44.33;;;30.00;;
52106;SDS011;38105;52.968;5.974;2022-11-15T01:34:24;41.90;;;29.80;;
52106;SDS011;38105;52.968;5.974;2022-11-15T01:36:50;45.25;;;29.75;;
52106;SDS011;38105;52.968;5.974;2022-11-15T01:39:19;42.50;;;29.40;;
52106;SDS011;38105;52.968;5.974;2022-11-15T01:41:49;41.13;;;29.02;;
52106;SDS011;38105;52.968;5.974;2022-11-15T01:47:13;42.35;;;28.67;;
52106;SDS011;38105;52.968;5.974;2022-11-15T01:49:54;37.33;;;27.70;;
52106;SDS011;38105;52.968;5.974;2022-11-15T01:52:26;38.55;;;27.73;;
52106;SDS011;38105;52.968;5.974;2022-11-15T01:54:57;36.45;;;27.38;;
52106;SDS011;38105;52.968;5.974;2022-11-15T01:57:36;39.42;;;27.92;;
52106;SDS011;38105;52.968;5.974;2022-11-15T02:00:04;38.08;;;27.83;;
52106;SDS011;38105;52.968;5.974;2022-11-15T02:02:31;39.38;;;27.27;;
52106;SDS011;38105;52.968;5.974;2022-11-15T02:04:58;37.65;;;27.55;;
52106;SDS011;38105;52.968;5.974;2022-11-15T02:07:29;43.35;;;28.58;;
52106;SDS011;38105;52.968;5.974;2022-11-15T02:10:10;42.08;;;28.27;;
52106;SDS011;38105;52.968;5.974;2022-11-15T02:12:40;46.28;;;30.33;;
52106;SDS011;38105;52.968;5.974;2022-11-15T02:15:06;46.92;;;30.80;;
52106;SDS011;38105;52.968;5.974;2022-11-15T02:17:52;49.45;;;31.48;;
52106;SDS011;38105;52.968;5.974;2022-11-15T02:20:49;53.55;;;33.15;;
52106;SDS011;38105;52.968;5.974;2022-11-15T02:29:21;54.67;;;32.65;;
52106;SDS011;38105;52.968;5.974;2022-11-15T02:32:36;58.45;;;34.45;;
52106;SDS011;38105;52.968;5.974;2022-11-15T02:41:26;61.72;;;35.15;;
52106;SDS011;38105;52.968;5.974;2022-11-15T02:44:36;63.60;;;35.30;;
52106;SDS011;38105;52.968;5.974;2022-11-15T02:47:04;64.38;;;36.17;;
52106;SDS011;38105;52.968;5.974;2022-11-15T02:49:46;75.63;;;38.75;;
52106;SDS011;38105;52.968;5.974;2022-11-15T02:52:21;75.20;;;38.20;;
52106;SDS011;38105;52.968;5.974;2022-11-15T02:54:55;76.72;;;40.10;;
52106;SDS011;38105;52.968;5.974;2022-11-15T03:00:12;80.55;;;40.25;;
52106;SDS011;38105;52.968;5.974;2022-11-15T03:10:26;87.40;;;40.28;;
52106;SDS011;38105;52.968;5.974;2022-11-15T03:16:38;91.57;;;42.67;;
52106;SDS011;38105;52.968;5.974;2022-11-15T03:18:48;85.78;;;42.15;;
52106;SDS011;38105;52.968;5.974;2022-11-15T03:21:25;91.22;;;42.85;;
52106;SDS011;38105;52.968;5.974;2022-11-15T03:24:06;100.15;;;45.85;;
52106;SDS011;38105;52.968;5.974;2022-11-15T03:26:34;98.38;;;43.53;;
52106;SDS011;38105;52.968;5.974;2022-11-15T03:29:08;112.20;;;45.45;;
52106;SDS011;38105;52.968;5.974;2022-11-15T03:31:39;109.13;;;46.05;;
52106;SDS011;38105;52.968;5.974;2022-11-15T03:36:58;132.50;;;50.35;;
52106;SDS011;38105;52.968;5.974;2022-11-15T03:39:24;130.35;;;49.97;;
52106;SDS011;38105;52.968;5.974;2022-11-15T03:50:46;147.90;;;51.92;;
52106;SDS011;38105;52.968;5.974;2022-11-15T03:53:19;145.23;;;51.40;;
52106;SDS011;38105;52.968;5.974;2022-11-15T03:55:44;137.07;;;50.20;;
52106;SDS011;38105;52.968;5.974;2022-11-15T03:58:13;133.23;;;50.90;;
52106;SDS011;38105;52.968;5.974;2022-11-15T04:00:39;130.15;;;49.08;;
52106;SDS011;38105;52.968;5.974;2022-11-15T04:03:08;115.90;;;46.60;;
52106;SDS011;38105;52.968;5.974;2022-11-15T04:05:38;124.72;;;48.10;;
52106;SDS011;38105;52.968;5.974;2022-11-15T04:08:09;112.40;;;47.20;;
52106;SDS011;38105;52.968;5.974;2022-11-15T04:10:41;122.70;;;47.45;;
52106;SDS011;38105;52.968;5.974;2022-11-15T04:13:10;121.10;;;48.28;;
52106;SDS011;38105;52.968;5.974;2022-11-15T04:15:36;121.03;;;48.20;;
52106;SDS011;38105;52.968;5.974;2022-11-15T04:18:08;121.07;;;49.88;;
52106;SDS011;38105;52.968;5.974;2022-11-15T04:20:36;131.68;;;52.67;;
52106;SDS011;38105;52.968;5.974;2022-11-15T04:26:19;142.43;;;52.28;;
52106;SDS011;38105;52.968;5.974;2022-11-15T04:28:49;138.43;;;55.20;;
52106;SDS011;38105;52.968;5.974;2022-11-15T04:31:34;142.27;;;55.42;;
52106;SDS011;38105;52.968;5.974;2022-11-15T04:34:03;146.48;;;59.15;;
52106;SDS011;38105;52.968;5.974;2022-11-15T04:36:29;155.00;;;57.83;;
52106;SDS011;38105;52.968;5.974;2022-11-15T04:39:16;153.00;;;57.35;;
52106;SDS011;38105;52.968;5.974;2022-11-15T04:41:44;147.68;;;57.00;;
52106;SDS011;38105;52.968;5.974;2022-11-15T04:44:18;152.70;;;58.47;;
52106;SDS011;38105;52.968;5.974;2022-11-15T04:46:46;152.88;;;61.22;;
52106;SDS011;38105;52.968;5.974;2022-11-15T04:49:18;159.48;;;60.72;;
52106;SDS011;38105;52.968;5.974;2022-11-15T04:51:49;161.07;;;61.08;;
52106;SDS011;38105;52.968;5.974;2022-11-15T04:54:19;167.52;;;62.97;;
52106;SDS011;38105;52.968;5.974;2022-11-15T04:56:47;169.48;;;64.13;;
52106;SDS011;38105;52.968;5.974;2022-11-15T04:59:16;184.05;;;66.68;;
52106;SDS011;38105;52.968;5.974;2022-11-15T05:01:48;159.40;;;63.17;;
52106;SDS011;38105;52.968;5.974;2022-11-15T05:04:19;147.32;;;62.28;;
52106;SDS011;38105;52.968;5.974;2022-11-15T05:06:51;160.30;;;62.67;;
52106;SDS011;38105;52.968;5.974;2022-11-15T05:09:20;158.70;;;65.75;;
52106;SDS011;38105;52.968;5.974;2022-11-15T05:11:50;150.90;;;61.47;;
52106;SDS011;38105;52.968;5.974;2022-11-15T05:14:19;170.18;;;63.90;;
52106;SDS011;38105;52.968;5.974;2022-11-15T05:16:47;172.57;;;67.68;;
52106;SDS011;38105;52.968;5.974;2022-11-15T05:19:15;179.00;;;67.50;;
52106;SDS011;38105;52.968;5.974;2022-11-15T05:21:43;189.68;;;69.28;;
52106;SDS011;38105;52.968;5.974;2022-11-15T05:24:15;189.52;;;70.28;;
52106;SDS011;38105;52.968;5.974;2022-11-15T05:26:50;220.50;;;74.25;;
52106;SDS011;38105;52.968;5.974;2022-11-15T05:29:15;213.05;;;72.32;;
52106;SDS011;38105;52.968;5.974;2022-11-15T05:31:45;236.02;;;77.03;;
52106;SDS011;38105;52.968;5.974;2022-11-15T05:34:13;210.52;;;74.20;;
52106;SDS011;38105;52.968;5.974;2022-11-15T05:36:45;254.50;;;80.55;;
52106;SDS011;38105;52.968;5.974;2022-11-15T05:39:14;235.55;;;81.22;;
52106;SDS011;38105;52.968;5.974;2022-11-15T05:41:47;267.85;;;82.97;;
52106;SDS011;38105;52.968;5.974;2022-11-15T05:44:20;257.60;;;81.80;;
52106;SDS011;38105;52.968;5.974;2022-11-15T05:46:51;238.45;;;78.80;;
52106;SDS011;38105;52.968;5.974;2022-11-15T05:49:23;256.83;;;80.67;;
52106;SDS011;38105;52.968;5.974;2022-11-15T05:51:57;239.10;;;79.60;;
52106;SDS011;38105;52.968;5.974;2022-11-15T05:54:24;229.13;;;78.78;;
52106;SDS011;38105;52.968;5.974;2022-11-15T05:56:53;231.00;;;79.07;;
52106;SDS011;38105;52.968;5.974;2022-11-15T05:59:22;188.60;;;72.88;;
52106;SDS011;38105;52.968;5.974;2022-11-15T06:01:54;200.15;;;73.60;;
52106;SDS011;38105;52.968;5.974;2022-11-15T06:04:23;229.88;;;78.07;;
52106;SDS011;38105;52.968;5.974;2022-11-15T06:06:52;263.38;;;81.70;;
52106;SDS011;38105;52.968;5.974;2022-11-15T06:09:20;218.68;;;78.10;;
52106;SDS011;38105;52.968;5.974;2022-11-15T06:11:46;253.05;;;80.43;;
52106;SDS011;38105;52.968;5.974;2022-11-15T06:14:13;239.93;;;80.10;;
52106;SDS011;38105;52.968;5.974;2022-11-15T06:16:41;215.80;;;79.32;;
52106;SDS011;38105;52.968;5.974;2022-11-15T06:19:10;202.80;;;75.88;;
52106;SDS011;38105;52.968;5.974;2022-11-15T06:21:39;211.70;;;78.25;;
52106;SDS011;38105;52.968;5.974;2022-11-15T06:24:06;216.23;;;78.13;;
52106;SDS011;38105;52.968;5.974;2022-11-15T06:26:32;221.80;;;78.90;;
52106;SDS011;38105;52.968;5.974;2022-11-15T06:29:02;200.32;;;74.75;;
52106;SDS011;38105;52.968;5.974;2022-11-15T06:31:29;199.38;;;72.57;;
52106;SDS011;38105;52.968;5.974;2022-11-15T06:33:58;185.75;;;74.15;;
52106;SDS011;38105;52.968;5.974;2022-11-15T06:36:27;199.45;;;75.07;;
52106;SDS011;38105;52.968;5.974;2022-11-15T06:38:56;180.23;;;68.00;;
52106;SDS011;38105;52.968;5.974;2022-11-15T06:41:22;199.65;;;73.07;;
52106;SDS011;38105;52.968;5.974;2022-11-15T06:43:57;157.38;;;68.80;;
52106;SDS011;38105;52.968;5.974;2022-11-15T06:46:25;173.52;;;69.30;;
52106;SDS011;38105;52.968;5.974;2022-11-15T06:48:55;148.32;;;65.53;;
52106;SDS011;38105;52.968;5.974;2022-11-15T06:51:24;158.77;;;67.45;;
52106;SDS011;38105;52.968;5.974;2022-11-15T06:54:09;150.55;;;66.03;;
52106;SDS011;38105;52.968;5.974;2022-11-15T06:56:39;139.27;;;62.08;;
52106;SDS011;38105;52.968;5.974;2022-11-15T06:59:09;138.25;;;64.35;;
52106;SDS011;38105;52.968;5.974;2022-11-15T07:01:46;134.45;;;61.15;;
52106;SDS011;38105;52.968;5.974;2022-11-15T07:04:15;135.40;;;60.95;;
52106;SDS011;38105;52.968;5.974;2022-11-15T07:06:46;135.35;;;60.92;;
52106;SDS011;38105;52.968;5.974;2022-11-15T07:09:17;133.70;;;61.70;;
52106;SDS011;38105;52.968;5.974;2022-11-15T07:11:49;124.78;;;61.15;;
52106;SDS011;38105;52.968;5.974;2022-11-15T07:14:15;126.63;;;60.30;;
52106;SDS011;38105;52.968;5.974;2022-11-15T07:16:43;124.15;;;61.67;;
52106;SDS011;38105;52.968;5.974;2022-11-15T07:19:12;104.68;;;54.17;;
52106;SDS011;38105;52.968;5.974;2022-11-15T07:21:41;97.72;;;52.97;;
52106;SDS011;38105;52.968;5.974;2022-11-15T07:24:11;102.97;;;55.40;;
52106;SDS011;38105;52.968;5.974;2022-11-15T07:26:42;93.05;;;51.53;;
52106;SDS011;38105;52.968;5.974;2022-11-15T07:29:19;96.80;;;51.13;;
52106;SDS011;38105;52.968;5.974;2022-11-15T07:31:50;88.70;;;50.92;;
52106;SDS011;38105;52.968;5.974;2022-11-15T07:34:24;84.93;;;49.40;;
52106;SDS011;38105;52.968;5.974;2022-11-15T07:36:53;83.25;;;50.15;;
52106;SDS011;38105;52.968;5.974;2022-11-15T07:39:28;89.22;;;50.45;;
52106;SDS011;38105;52.968;5.974;2022-11-15T07:42:00;94.28;;;50.28;;
52106;SDS011;38105;52.968;5.974;2022-11-15T07:44:48;89.68;;;49.83;;
52106;SDS011;38105;52.968;5.974;2022-11-15T07:47:17;90.20;;;51.67;;
52106;SDS011;38105;52.968;5.974;2022-11-15T07:49:45;84.50;;;49.15;;
52106;SDS011;38105;52.968;5.974;2022-11-15T07:52:25;81.47;;;48.38;;
52106;SDS011;38105;52.968;5.974;2022-11-15T07:54:56;82.72;;;50.47;;
52106;SDS011;38105;52.968;5.974;2022-11-15T07:57:31;90.15;;;50.28;;
52106;SDS011;38105;52.968;5.974;2022-11-15T08:00:02;90.95;;;50.72;;
52106;SDS011;38105;52.968;5.974;2022-11-15T08:02:40;99.63;;;51.28;;
52106;SDS011;38105;52.968;5.974;2022-11-15T08:05:13;80.43;;;48.10;;
52106;SDS011;38105;52.968;5.974;2022-11-15T08:07:39;86.57;;;49.17;;
52106;SDS011;38105;52.968;5.974;2022-11-15T08:10:14;84.40;;;47.60;;
52106;SDS011;38105;52.968;5.974;2022-11-15T08:12:44;79.95;;;47.50;;
52106;SDS011;38105;52.968;5.974;2022-11-15T08:15:30;79.43;;;46.22;;
52106;SDS011;38105;52.968;5.974;2022-11-15T08:17:57;81.97;;;47.95;;
52106;SDS011;38105;52.968;5.974;2022-11-15T08:20:27;77.70;;;47.45;;
52106;SDS011;38105;52.968;5.974;2022-11-15T08:23:00;76.47;;;45.93;;
52106;SDS011;38105;52.968;5.974;2022-11-15T08:28:06;74.82;;;46.35;;
52106;SDS011;38105;52.968;5.974;2022-11-15T08:30:35;77.18;;;45.95;;
52106;SDS011;38105;52.968;5.974;2022-11-15T08:33:09;79.85;;;47.75;;
52106;SDS011;38105;52.968;5.974;2022-11-15T08:35:42;71.43;;;46.70;;
52106;SDS011;38105;52.968;5.974;2022-11-15T08:38:12;69.18;;;43.35;;
52106;SDS011;38105;52.968;5.974;2022-11-15T08:40:41;71.32;;;45.92;;
52106;SDS011;38105;52.968;5.974;2022-11-15T08:43:12;73.35;;;44.58;;
52106;SDS011;38105;52.968;5.974;2022-11-15T08:45:41;68.15;;;43.22;;
52106;SDS011;38105;52.968;5.974;2022-11-15T08:48:15;64.75;;;43.17;;
52106;SDS011;38105;52.968;5.974;2022-11-15T08:50:41;65.00;;;42.22;;
52106;SDS011;38105;52.968;5.974;2022-11-15T08:53:19;65.45;;;42.55;;
52106;SDS011;38105;52.968;5.974;2022-11-15T08:55:48;62.50;;;40.33;;
52106;SDS011;38105;52.968;5.974;2022-11-15T08:58:35;58.55;;;42.00;;
52106;SDS011;38105;52.968;5.974;2022-11-15T09:01:20;61.10;;;43.58;;
52106;SDS011;38105;52.968;5.974;2022-11-15T09:03:47;67.63;;;42.63;;
52106;SDS011;38105;52.968;5.974;2022-11-15T09:06:19;61.20;;;40.55;;
52106;SDS011;38105;52.968;5.974;2022-11-15T09:08:48;63.60;;;39.78;;
52106;SDS011;38105;52.968;5.974;2022-11-15T09:11:14;54.85;;;39.15;;
52106;SDS011;38105;52.968;5.974;2022-11-15T09:13:43;54.10;;;37.33;;
52106;SDS011;38105;52.968;5.974;2022-11-15T09:16:17;53.22;;;38.88;;
52106;SDS011;38105;52.968;5.974;2022-11-15T09:18:49;50.45;;;37.65;;
52106;SDS011;38105;52.968;5.974;2022-11-15T09:21:29;51.45;;;37.17;;
52106;SDS011;38105;52.968;5.974;2022-11-15T09:24:08;45.20;;;34.67;;
52106;SDS011;38105;52.968;5.974;2022-11-15T09:26:34;47.75;;;33.42;;
52106;SDS011;38105;52.968;5.974;2022-11-15T09:29:03;48.15;;;34.22;;
52106;SDS011;38105;52.968;5.974;2022-11-15T09:31:41;48.85;;;33.97;;
52106;SDS011;38105;52.968;5.974;2022-11-15T09:34:12;46.42;;;33.90;;
52106;SDS011;38105;52.968;5.974;2022-11-15T09:36:41;46.53;;;32.42;;
52106;SDS011;38105;52.968;5.974;2022-11-15T09:39:12;44.08;;;33.30;;
52106;SDS011;38105;52.968;5.974;2022-11-15T09:42:04;49.13;;;33.88;;
52106;SDS011;38105;52.968;5.974;2022-11-15T09:50:43;39.90;;;29.80;;
52106;SDS011;38105;52.968;5.974;2022-11-15T09:53:19;45.05;;;31.80;;
52106;SDS011;38105;52.968;5.974;2022-11-15T09:56:16;42.03;;;31.02;;
52106;SDS011;38105;52.968;5.974;2022-11-15T09:58:54;46.38;;;31.27;;
52106;SDS011;38105;52.968;5.974;2022-11-15T10:01:39;39.30;;;29.77;;
52106;SDS011;38105;52.968;5.974;2022-11-15T10:07:04;34.28;;;26.63;;
52106;SDS011;38105;52.968;5.974;2022-11-15T10:12:27;30.58;;;26.40;;
52106;SDS011;38105;52.968;5.974;2022-11-15T10:15:26;34.17;;;26.77;;
52106;SDS011;38105;52.968;5.974;2022-11-15T10:18:05;37.38;;;29.25;;
52106;SDS011;38105;52.968;5.974;2022-11-15T10:20:49;40.65;;;26.42;;
52106;SDS011;38105;52.968;5.974;2022-11-15T10:23:27;39.08;;;27.35;;
52106;SDS011;38105;52.968;5.974;2022-11-15T10:26:04;43.63;;;27.63;;
52106;SDS011;38105;52.968;5.974;2022-11-15T10:28:36;36.05;;;25.88;;
52106;SDS011;38105;52.968;5.974;2022-11-15T10:31:21;38.13;;;25.15;;
52106;SDS011;38105;52.968;5.974;2022-11-15T10:39:30;33.08;;;23.15;;
52106;SDS011;38105;52.968;5.974;2022-11-15T10:42:14;30.63;;;22.85;;
52106;SDS011;38105;52.968;5.974;2022-11-15T10:44:54;29.13;;;22.10;;
52106;SDS011;38105;52.968;5.974;2022-11-15T10:47:29;29.58;;;20.48;;
52106;SDS011;38105;52.968;5.974;2022-11-15T10:50:00;26.42;;;20.05;;
52106;SDS011;38105;52.968;5.974;2022-11-15T10:52:58;25.33;;;20.40;;
52106;SDS011;38105;52.968;5.974;2022-11-15T10:55:28;27.42;;;19.75;;
52106;SDS011;38105;52.968;5.974;2022-11-15T10:58:05;26.33;;;19.75;;
52106;SDS011;38105;52.968;5.974;2022-11-15T11:00:50;28.10;;;18.20;;
52106;SDS011;38105;52.968;5.974;2022-11-15T11:03:33;24.17;;;16.95;;
52106;SDS011;38105;52.968;5.974;2022-11-15T11:06:20;25.15;;;17.92;;
52106;SDS011;38105;52.968;5.974;2022-11-15T11:11:43;21.10;;;16.98;;
52106;SDS011;38105;52.968;5.974;2022-11-15T11:14:21;21.70;;;15.10;;
52106;SDS011;38105;52.968;5.974;2022-11-15T11:20:05;19.20;;;15.00;;
52106;SDS011;38105;52.968;5.974;2022-11-15T11:51:32;12.82;;;10.48;;
52106;SDS011;38105;52.968;5.974;2022-11-15T11:54:08;12.25;;;10.02;;
52106;SDS011;38105;52.968;5.974;2022-11-15T11:56:53;15.30;;;9.50;;
52106;SDS011;38105;52.968;5.974;2022-11-15T12:02:18;12.85;;;9.15;;
52106;SDS011;38105;52.968;5.974;2022-11-15T12:04:59;12.45;;;9.10;;
52106;SDS011;38105;52.968;5.974;2022-11-15T12:07:39;13.45;;;8.75;;
52106;SDS011;38105;52.968;5.974;2022-11-15T12:10:14;14.52;;;8.73;;
52106;SDS011;38105;52.968;5.974;2022-11-15T12:13:02;14.02;;;7.25;;
52106;SDS011;38105;52.968;5.974;2022-11-15T12:15:57;8.80;;;5.28;;
52106;SDS011;38105;52.968;5.974;2022-11-15T12:18:35;7.95;;;5.20;;
52106;SDS011;38105;52.968;5.974;2022-11-15T12:21:18;8.73;;;3.75;;
52106;SDS011;38105;52.968;5.974;2022-11-15T12:23:52;11.48;;;4.18;;
52106;SDS011;38105;52.968;5.974;2022-11-15T12:29:40;9.48;;;4.03;;
52106;SDS011;38105;52.968;5.974;2022-11-15T12:34:56;6.68;;;3.60;;
52106;SDS011;38105;52.968;5.974;2022-11-15T12:40:22;6.07;;;2.90;;
52106;SDS011;38105;52.968;5.974;2022-11-15T12:45:44;4.88;;;2.85;;
52106;SDS011;38105;52.968;5.974;2022-11-15T12:50:56;6.28;;;2.90;;
52106;SDS011;38105;52.968;5.974;2022-11-15T12:53:28;3.67;;;2.53;;
52106;SDS011;38105;52.968;5.974;2022-11-15T12:58:44;7.75;;;2.97;;
52106;SDS011;38105;52.968;5.974;2022-11-15T13:04:13;5.45;;;3.30;;
52106;SDS011;38105;52.968;5.974;2022-11-15T13:06:59;7.30;;;3.35;;
52106;SDS011;38105;52.968;5.974;2022-11-15T13:12:48;8.00;;;3.67;;
52106;SDS011;38105;52.968;5.974;2022-11-15T13:14:59;7.22;;;3.10;;
52106;SDS011;38105;52.968;5.974;2022-11-15T13:22:41;5.97;;;3.13;;
52106;SDS011;38105;52.968;5.974;2022-11-15T13:25:51;5.90;;;3.30;;
52106;SDS011;38105;52.968;5.974;2022-11-15T13:28:37;8.55;;;3.38;;
52106;SDS011;38105;52.968;5.974;2022-11-15T13:34:14;3.85;;;2.40;;
52106;SDS011;38105;52.968;5.974;2022-11-15T13:36:53;4.80;;;2.10;;
52106;SDS011;38105;52.968;5.974;2022-11-15T13:39:28;5.03;;;2.60;;
52106;SDS011;38105;52.968;5.974;2022-11-15T13:42:01;6.93;;;2.40;;
52106;SDS011;38105;52.968;5.974;2022-11-15T13:44:35;4.70;;;2.55;;
52106;SDS011;38105;52.968;5.974;2022-11-15T13:47:18;5.47;;;2.42;;
52106;SDS011;38105;52.968;5.974;2022-11-15T13:49:45;4.82;;;2.10;;
52106;SDS011;38105;52.968;5.974;2022-11-15T13:52:23;5.00;;;2.10;;
52106;SDS011;38105;52.968;5.974;2022-11-15T13:57:57;7.22;;;2.22;;
52106;SDS011;38105;52.968;5.974;2022-11-15T14:03:05;7.85;;;2.47;;
52106;SDS011;38105;52.968;5.974;2022-11-15T14:05:39;4.43;;;1.90;;
52106;SDS011;38105;52.968;5.974;2022-11-15T14:08:20;5.30;;;2.00;;
52106;SDS011;38105;52.968;5.974;2022-11-15T14:11:07;4.55;;;1.50;;
52106;SDS011;38105;52.968;5.974;2022-11-15T14:14:04;5.47;;;1.92;;
52106;SDS011;38105;52.968;5.974;2022-11-15T14:16:49;6.80;;;2.00;;
52106;SDS011;38105;52.968;5.974;2022-11-15T14:22:12;6.00;;;1.65;;
52106;SDS011;38105;52.968;5.974;2022-11-15T14:24:43;3.58;;;1.30;;
52106;SDS011;38105;52.968;5.974;2022-11-15T14:27:34;5.30;;;1.58;;
52106;SDS011;38105;52.968;5.974;2022-11-15T14:30:36;6.05;;;2.28;;
52106;SDS011;38105;52.968;5.974;2022-11-15T14:33:17;6.53;;;1.60;;
52106;SDS011;38105;52.968;5.974;2022-11-15T14:35:54;4.40;;;1.80;;
52106;SDS011;38105;52.968;5.974;2022-11-15T14:38:25;5.32;;;1.88;;
52106;SDS011;38105;52.968;5.974;2022-11-15T14:40:59;4.82;;;1.40;;
52106;SDS011;38105;52.968;5.974;2022-11-15T14:43:26;3.85;;;1.48;;
52106;SDS011;38105;52.968;5.974;2022-11-15T14:45:52;3.88;;;1.30;;
52106;SDS011;38105;52.968;5.974;2022-11-15T14:48:24;7.47;;;1.40;;
52106;SDS011;38105;52.968;5.974;2022-11-15T14:50:56;6.28;;;1.52;;
52106;SDS011;38105;52.968;5.974;2022-11-15T14:53:25;6.40;;;1.40;;
52106;SDS011;38105;52.968;5.974;2022-11-15T14:55:55;2.70;;;1.15;;
52106;SDS011;38105;52.968;5.974;2022-11-15T14:58:26;3.78;;;1.17;;
52106;SDS011;38105;52.968;5.974;2022-11-15T15:00:53;3.92;;;1.15;;
52106;SDS011;38105;52.968;5.974;2022-11-15T15:03:19;7.35;;;1.10;;
52106;SDS011;38105;52.968;5.974;2022-11-15T15:05:57;2.33;;;1.00;;
52106;SDS011;38105;52.968;5.974;2022-11-15T15:08:26;2.92;;;1.00;;
52106;SDS011;38105;52.968;5.974;2022-11-15T15:10:55;3.42;;;0.82;;
52106;SDS011;38105;52.968;5.974;2022-11-15T15:13:27;5.35;;;1.00;;
52106;SDS011;38105;52.968;5.974;2022-11-15T15:15:55;3.17;;;1.00;;
52106;SDS011;38105;52.968;5.974;2022-11-15T15:18:27;3.53;;;0.98;;
52106;SDS011;38105;52.968;5.974;2022-11-15T15:21:01;2.38;;;0.88;;
52106;SDS011;38105;52.968;5.974;2022-11-15T15:23:32;4.25;;;0.82;;
52106;SDS011;38105;52.968;5.974;2022-11-15T15:25:58;5.28;;;1.30;;
52106;SDS011;38105;52.968;5.974;2022-11-15T15:28:27;5.47;;;1.48;;
52106;SDS011;38105;52.968;5.974;2022-11-15T15:30:56;4.13;;;1.20;;
52106;SDS011;38105;52.968;5.974;2022-11-15T15:33:25;3.92;;;0.95;;
52106;SDS011;38105;52.968;5.974;2022-11-15T15:35:54;7.78;;;1.48;;
52106;SDS011;38105;52.968;5.974;2022-11-15T15:38:26;5.73;;;0.90;;
52106;SDS011;38105;52.968;5.974;2022-11-15T15:40:52;3.47;;;1.20;;
52106;SDS011;38105;52.968;5.974;2022-11-15T15:43:23;3.58;;;1.10;;
52106;SDS011;38105;52.968;5.974;2022-11-15T15:45:49;5.50;;;1.40;;
52106;SDS011;38105;52.968;5.974;2022-11-15T15:48:19;6.88;;;1.50;;
52106;SDS011;38105;52.968;5.974;2022-11-15T15:50:45;4.47;;;1.70;;
52106;SDS011;38105;52.968;5.974;2022-11-15T15:53:17;3.80;;;1.70;;
52106;SDS011;38105;52.968;5.974;2022-11-15T15:55:49;5.82;;;1.95;;
52106;SDS011;38105;52.968;5.974;2022-11-15T15:58:18;7.75;;;2.53;;
52106;SDS011;38105;52.968;5.974;2022-11-15T16:00:44;4.80;;;2.03;;
52106;SDS011;38105;52.968;5.974;2022-11-15T16:03:15;5.25;;;2.35;;
52106;SDS011;38105;52.968;5.974;2022-11-15T16:05:51;8.35;;;2.28;;
52106;SDS011;38105;52.968;5.974;2022-11-15T16:08:23;4.47;;;2.50;;
52106;SDS011;38105;52.968;5.974;2022-11-15T16:10:57;6.25;;;2.90;;
52106;SDS011;38105;52.968;5.974;2022-11-15T16:13:26;3.60;;;2.22;;
52106;SDS011;38105;52.968;5.974;2022-11-15T16:16:01;4.28;;;2.65;;
52106;SDS011;38105;52.968;5.974;2022-11-15T16:18:30;4.93;;;2.58;;
52106;SDS011;38105;52.968;5.974;2022-11-15T16:21:04;5.43;;;2.90;;
52106;SDS011;38105;52.968;5.974;2022-11-15T16:23:45;4.90;;;3.15;;
52106;SDS011;38105;52.968;5.974;2022-11-15T16:26:18;7.05;;;3.47;;
52106;SDS011;38105;52.968;5.974;2022-11-15T16:28:59;5.50;;;3.08;;
52106;SDS011;38105;52.968;5.974;2022-11-15T16:31:34;6.60;;;3.45;;
52106;SDS011;38105;52.968;5.974;2022-11-15T16:34:16;5.97;;;3.15;;
52106;SDS011;38105;52.968;5.974;2022-11-15T16:36:58;5.03;;;3.30;;
52106;SDS011;38105;52.968;5.974;2022-11-15T16:39:30;4.63;;;3.10;;
52106;SDS011;38105;52.968;5.974;2022-11-15T16:41:57;7.75;;;3.35;;
52106;SDS011;38105;52.968;5.974;2022-11-15T16:44:23;7.07;;;3.30;;
52106;SDS011;38105;52.968;5.974;2022-11-15T16:46:53;5.65;;;2.65;;
52106;SDS011;38105;52.968;5.974;2022-11-15T16:49:21;4.03;;;2.78;;
52106;SDS011;38105;52.968;5.974;2022-11-15T16:51:59;5.75;;;2.47;;
52106;SDS011;38105;52.968;5.974;2022-11-15T16:54:33;8.43;;;3.22;;
52106;SDS011;38105;52.968;5.974;2022-11-15T16:56:59;4.03;;;2.28;;
52106;SDS011;38105;52.968;5.974;2022-11-15T16:59:31;4.22;;;2.25;;
52106;SDS011;38105;52.968;5.974;2022-11-15T17:02:03;4.57;;;2.25;;
52106;SDS011;38105;52.968;5.974;2022-11-15T17:04:32;4.75;;;2.30;;
52106;SDS011;38105;52.968;5.974;2022-11-15T17:06:58;5.28;;;2.50;;
52106;SDS011;38105;52.968;5.974;2022-11-15T17:09:27;4.90;;;2.10;;
52106;SDS011;38105;52.968;5.974;2022-11-15T17:12:00;7.90;;;2.10;;
52106;SDS011;38105;52.968;5.974;2022-11-15T17:14:34;3.97;;;1.80;;
52106;SDS011;38105;52.968;5.974;2022-11-15T17:17:03;4.00;;;1.60;;
52106;SDS011;38105;52.968;5.974;2022-11-15T17:19:29;4.70;;;1.60;;